Time;durP1;ratioP1;P1;durP2;ratioP2;P2;SDS_P1;SDS_P2;PMS_P1;PMS_P2;Temp;Humidity;BMP_temperature;BMP_pressure;BME280_temperature;BME280_humidity;BME280_pressure;Samples;Min_cycle;Max_cycle;Signal;HPM_P1;HPM_P2
2023/12/18 00:02:09;;;;;;;314.92;283.25;;;27.30;99.90;;;;;;5074782;28;20064;-70
2023/12/18 00:04:36;;;;;;;354.40;318.60;;;27.40;99.90;;;;;;5074922;28;20066;-70
2023/12/18 00:07:02;;;;;;;345.02;310.00;;;27.30;99.90;;;;;;5074763;28;20048;-69
2023/12/18 00:09:29;;;;;;;331.35;297.98;;;27.30;99.90;;;;;;5074815;28;20475;-69
2023/12/18 00:11:55;;;;;;;339.70;305.85;;;27.30;99.90;;;;;;5074868;28;20158;-69
2023/12/18 00:14:22;;;;;;;336.27;302.83;;;27.40;99.90;;;;;;5074712;28;20386;-69
2023/12/18 00:16:48;;;;;;;335.85;301.98;;;27.40;99.90;;;;;;5075000;28;20468;-68
2023/12/18 00:19:15;;;;;;;326.05;294.23;;;27.40;99.90;;;;;;5075055;28;20031;-70
2023/12/18 00:21:41;;;;;;;316.35;285.02;;;27.50;99.90;;;;;;5074753;28;20028;-68
2023/12/18 00:24:08;;;;;;;354.33;318.40;;;27.50;99.90;;;;;;5074592;28;20498;-68
2023/12/18 00:26:34;;;;;;;345.00;310.38;;;27.50;99.90;;;;;;5074722;28;20475;-69
2023/12/18 00:29:01;;;;;;;355.25;319.00;;;27.50;99.90;;;;;;5075234;28;20048;-68
2023/12/18 00:31:27;;;;;;;355.40;318.90;;;27.50;99.90;;;;;;5067479;28;20390;-70
2023/12/18 00:33:54;;;;;;;396.08;354.75;;;27.50;99.90;;;;;;5054598;28;20075;-69
2023/12/18 00:36:20;;;;;;;398.85;357.05;;;27.50;99.90;;;;;;5054549;28;20383;-68
2023/12/18 00:38:47;;;;;;;344.10;309.70;;;27.60;99.90;;;;;;5066611;28;20032;-67
2023/12/18 00:41:13;;;;;;;364.75;327.42;;;27.60;99.90;;;;;;5073732;28;20017;-71
2023/12/18 00:43:40;;;;;;;399.05;357.50;;;27.60;99.90;;;;;;5073739;28;20020;-69
2023/12/18 00:46:06;;;;;;;428.40;382.65;;;27.70;99.90;;;;;;5060349;28;20447;-69
2023/12/18 00:48:33;;;;;;;411.45;368.13;;;27.70;99.90;;;;;;5063565;28;20052;-70
2023/12/18 00:50:59;;;;;;;404.67;361.73;;;27.80;99.90;;;;;;5071509;28;20033;-71
2023/12/18 00:53:26;;;;;;;380.25;341.20;;;27.80;99.90;;;;;;5054558;28;20029;-70
2023/12/18 00:55:52;;;;;;;382.42;342.90;;;27.90;99.90;;;;;;5054459;28;20025;-71
2023/12/18 00:58:19;;;;;;;378.85;340.30;;;27.90;99.90;;;;;;5074473;28;20028;-69
2023/12/18 01:00:45;;;;;;;391.50;350.95;;;27.90;99.90;;;;;;5066928;28;20096;-71
2023/12/18 01:03:12;;;;;;;377.05;338.77;;;28.00;99.90;;;;;;5054431;28;20402;-71
2023/12/18 01:05:39;;;;;;;388.60;348.08;;;28.00;99.90;;;;;;5054285;28;20025;-72
2023/12/18 01:08:05;;;;;;;410.92;367.30;;;28.00;99.90;;;;;;5054452;28;20020;-71
2023/12/18 01:10:32;;;;;;;395.45;354.40;;;28.10;99.90;;;;;;5054346;28;20021;-72
2023/12/18 01:12:58;;;;;;;403.15;362.02;;;28.10;99.90;;;;;;5054241;28;20033;-72
2023/12/18 01:15:25;;;;;;;418.05;375.05;;;28.10;99.90;;;;;;5054340;28;20044;-70
2023/12/18 01:17:51;;;;;;;368.33;331.17;;;28.20;99.90;;;;;;5054532;28;20017;-71
2023/12/18 01:20:18;;;;;;;364.30;327.70;;;28.30;99.90;;;;;;5054308;28;20029;-72
2023/12/18 01:22:45;;;;;;;358.08;321.98;;;28.40;99.90;;;;;;5054753;28;20013;-70
2023/12/18 01:25:11;;;;;;;325.58;293.33;;;28.40;99.90;;;;;;5054619;28;20037;-70
2023/12/18 01:27:38;;;;;;;398.48;356.25;;;28.50;99.90;;;;;;5053819;28;20063;-67
2023/12/18 01:30:08;;;;;;;312.88;282.80;;;28.60;99.90;;;;;;5053994;28;20017;-72
2023/12/18 01:32:34;;;;;;;327.55;295.98;;;28.60;99.90;;;;;;5054406;28;20025;-70
2023/12/18 01:35:01;;;;;;;356.23;319.20;;;28.60;99.90;;;;;;5053522;28;20117;-74
2023/12/18 01:37:28;;;;;;;388.23;346.80;;;28.70;99.90;;;;;;5068591;28;20387;-75
2023/12/18 01:39:54;;;;;;;340.45;306.42;;;28.80;99.90;;;;;;5062417;28;20056;-69
2023/12/18 01:42:20;;;;;;;320.08;288.95;;;28.90;99.90;;;;;;5053525;28;20273;-71
2023/12/18 01:44:48;;;;;;;352.05;316.95;;;29.00;99.90;;;;;;5053692;28;20024;-72
2023/12/18 01:47:16;;;;;;;324.88;293.13;;;29.00;99.90;;;;;;5053491;28;20357;-72
2023/12/18 01:49:43;;;;;;;353.35;318.08;;;29.10;99.90;;;;;;5070924;28;20436;-70
2023/12/18 01:52:10;;;;;;;386.77;347.23;;;29.10;99.90;;;;;;5079251;28;20107;-71
2023/12/18 01:54:37;;;;;;;367.98;331.13;;;29.10;99.90;;;;;;5078788;28;20063;-67
2023/12/18 01:57:04;;;;;;;366.13;329.63;;;29.20;99.90;;;;;;5078573;28;20025;-70
2023/12/18 01:59:32;;;;;;;373.98;335.98;;;29.30;99.90;;;;;;5078352;28;20031;-70
2023/12/18 02:01:59;;;;;;;349.45;315.10;;;29.30;99.90;;;;;;5078404;28;20158;-70
2023/12/18 02:04:27;;;;;;;377.00;338.58;;;29.40;99.90;;;;;;5078422;28;20017;-71
2023/12/18 02:06:53;;;;;;;368.80;331.48;;;29.40;99.90;;;;;;5077265;28;20108;-69
2023/12/18 02:09:20;;;;;;;367.10;330.65;;;29.50;99.90;;;;;;5076118;28;20023;-69
2023/12/18 02:11:46;;;;;;;375.88;338.27;;;29.50;99.90;;;;;;5077396;28;20023;-69
2023/12/18 02:14:13;;;;;;;355.30;320.08;;;29.50;99.90;;;;;;5077073;28;20070;-69
2023/12/18 02:16:40;;;;;;;394.80;354.23;;;29.60;99.90;;;;;;5077476;28;20031;-67
2023/12/18 02:19:29;;;;;;;374.13;336.52;;;29.60;99.90;;;;;;5077592;28;20032;-67
2023/12/18 02:21:56;;;;;;;340.40;306.95;;;29.60;99.90;;;;;;5076983;28;20044;-68
2023/12/18 02:24:22;;;;;;;320.20;289.15;;;29.60;99.90;;;;;;5076980;28;20487;-69
2023/12/18 02:26:49;;;;;;;289.67;262.55;;;29.70;99.90;;;;;;5076009;28;20032;-70
2023/12/18 02:29:16;;;;;;;296.35;268.05;;;29.80;99.90;;;;;;5076285;28;20078;-70
2023/12/18 02:31:43;;;;;;;310.15;279.67;;;29.90;99.90;;;;;;5075949;28;20016;-69
2023/12/18 02:34:09;;;;;;;312.58;282.65;;;30.00;99.90;;;;;;5075678;28;20024;-69
2023/12/18 02:36:36;;;;;;;286.30;259.02;;;30.10;99.90;;;;;;5075917;28;20399;-70
2023/12/18 02:39:02;;;;;;;296.02;267.75;;;30.20;99.90;;;;;;5073171;28;20025;-69
2023/12/18 02:41:29;;;;;;;293.13;266.00;;;30.30;99.90;;;;;;5075380;28;20024;-70
2023/12/18 02:43:57;;;;;;;270.58;245.50;;;30.40;99.90;;;;;;5075669;28;20070;-67
2023/12/18 02:46:23;;;;;;;302.58;273.63;;;30.50;99.90;;;;;;5075443;28;20100;-68
2023/12/18 02:48:50;;;;;;;285.80;258.88;;;30.60;99.90;;;;;;5075521;28;20518;-69
2023/12/18 02:51:16;;;;;;;243.35;221.30;;;30.60;99.90;;;;;;5075829;28;20099;-70
2023/12/18 02:53:43;;;;;;;256.98;233.55;;;30.60;99.90;;;;;;5075295;28;20024;-69
2023/12/18 02:56:13;;;;;;;275.83;249.98;;;30.60;99.90;;;;;;5075275;28;20033;-69
2023/12/18 02:58:40;;;;;;;259.10;235.18;;;30.60;99.90;;;;;;5075268;28;20109;-69
2023/12/18 03:01:06;;;;;;;263.27;239.02;;;30.60;99.90;;;;;;5074643;28;20044;-69
2023/12/18 03:03:33;;;;;;;243.25;220.70;;;30.50;99.90;;;;;;5075385;28;20432;-68
2023/12/18 03:05:59;;;;;;;239.68;217.88;;;30.50;99.90;;;;;;5075202;28;20025;-69
2023/12/18 03:08:26;;;;;;;244.68;222.63;;;30.50;99.90;;;;;;5074234;28;20048;-69
2023/12/18 03:10:53;;;;;;;245.40;222.73;;;30.60;99.90;;;;;;5075197;28;20028;-69
2023/12/18 03:13:20;;;;;;;234.98;214.07;;;30.60;99.90;;;;;;5075456;28;20025;-69
2023/12/18 03:15:46;;;;;;;235.55;214.40;;;30.70;99.90;;;;;;5074993;28;20024;-67
2023/12/18 03:18:13;;;;;;;223.93;203.75;;;30.70;99.90;;;;;;5074859;28;20024;-69
2023/12/18 03:20:39;;;;;;;215.73;196.93;;;30.80;99.90;;;;;;5074301;28;20032;-69
2023/12/18 03:23:06;;;;;;;274.73;248.23;;;30.90;99.90;;;;;;5074939;28;20437;-69
2023/12/18 03:25:32;;;;;;;215.00;195.88;;;30.90;99.90;;;;;;5072812;28;20458;-69
2023/12/18 03:27:58;;;;;;;226.43;206.18;;;30.90;99.90;;;;;;5075471;28;20020;-69
2023/12/18 03:30:25;;;;;;;321.10;288.45;;;31.00;99.90;;;;;;5073526;28;20048;-70
2023/12/18 03:32:51;;;;;;;292.20;262.40;;;31.00;99.90;;;;;;5075102;28;20021;-69
2023/12/18 03:35:18;;;;;;;253.40;230.20;;;31.00;99.90;;;;;;5074721;28;20031;-68
2023/12/18 03:37:44;;;;;;;241.68;219.95;;;30.90;99.90;;;;;;5074472;28;20020;-69
2023/12/18 03:40:11;;;;;;;214.73;195.70;;;30.90;99.90;;;;;;5074584;28;20021;-65
2023/12/18 03:42:38;;;;;;;227.43;207.43;;;30.90;99.90;;;;;;5074478;28;20394;-69
2023/12/18 03:45:05;;;;;;;189.75;173.00;;;30.90;99.90;;;;;;5073877;28;20038;-67
2023/12/18 03:47:32;;;;;;;209.88;191.45;;;30.90;99.90;;;;;;5074558;28;20016;-67
2023/12/18 03:49:58;;;;;;;242.13;220.02;;;31.00;99.90;;;;;;5074658;28;20020;-67
2023/12/18 03:52:25;;;;;;;239.55;217.90;;;31.00;99.90;;;;;;5074576;28;20023;-70
2023/12/18 03:54:51;;;;;;;221.70;202.00;;;31.00;99.90;;;;;;5074278;28;20033;-69
2023/12/18 03:57:18;;;;;;;225.40;205.35;;;31.00;99.90;;;;;;5074390;28;20020;-69
2023/12/18 03:59:44;;;;;;;248.32;226.05;;;31.00;99.90;;;;;;5074306;28;20115;-68
2023/12/18 04:02:11;;;;;;;238.38;216.82;;;31.00;99.90;;;;;;5074620;28;20413;-69
2023/12/18 04:04:37;;;;;;;241.25;219.43;;;31.00;99.90;;;;;;5074223;28;20082;-67
2023/12/18 04:07:04;;;;;;;239.00;218.05;;;31.00;99.90;;;;;;5073022;28;20489;-67
2023/12/18 04:09:30;;;;;;;216.18;196.82;;;31.10;99.90;;;;;;5072481;28;20104;-68
2023/12/18 04:11:57;;;;;;;215.18;195.90;;;31.10;99.90;;;;;;5073876;28;20028;-68
2023/12/18 04:14:23;;;;;;;227.90;206.77;;;31.10;99.90;;;;;;5072834;28;20162;-66
2023/12/18 04:16:50;;;;;;;246.43;223.52;;;31.10;99.90;;;;;;5073842;28;20500;-66
2023/12/18 04:19:16;;;;;;;206.43;188.05;;;31.20;99.90;;;;;;5073948;28;20447;-67
2023/12/18 04:21:43;;;;;;;220.73;201.15;;;31.20;99.90;;;;;;5073237;28;20500;-68
2023/12/18 04:24:09;;;;;;;240.02;218.20;;;31.20;99.90;;;;;;5070399;28;20130;-68
2023/12/18 04:26:36;;;;;;;224.45;204.27;;;31.20;99.90;;;;;;5073378;28;20055;-68
2023/12/18 04:29:02;;;;;;;255.73;231.65;;;31.20;99.90;;;;;;5072804;28;20017;-67
2023/12/18 04:31:29;;;;;;;238.82;216.93;;;31.20;99.90;;;;;;5071923;28;20090;-68
2023/12/18 04:33:55;;;;;;;222.10;202.07;;;31.20;99.90;;;;;;5073840;28;20475;-65
2023/12/18 04:36:22;;;;;;;219.27;199.65;;;31.20;99.90;;;;;;5074026;28;20071;-65
2023/12/18 04:38:48;;;;;;;239.38;217.57;;;31.20;99.90;;;;;;5071159;28;20059;-63
2023/12/18 04:41:20;;;;;;;203.13;185.48;;;31.20;99.90;;;;;;5073805;28;20025;-69
2023/12/18 04:43:47;;;;;;;;;;;31.20;99.90;;;;;;5072518;28;20031;-64
2023/12/18 04:46:13;;;;;;;233.00;212.02;;;31.30;99.90;;;;;;5074771;28;20294;-64
2023/12/18 04:48:41;;;;;;;224.35;204.45;;;31.30;99.90;;;;;;5074020;28;20417;-64
2023/12/18 04:51:09;;;;;;;211.02;192.10;;;31.40;99.90;;;;;;5072716;28;20364;-65
2023/12/18 04:53:35;;;;;;;211.77;192.82;;;31.40;99.90;;;;;;5072016;28;20085;-65
2023/12/18 04:56:02;;;;;;;235.40;214.13;;;31.30;99.90;;;;;;5074629;28;20083;-64
2023/12/18 04:58:28;;;;;;;236.85;215.25;;;31.40;99.90;;;;;;5072354;28;20033;-64
2023/12/18 05:00:55;;;;;;;219.07;199.25;;;31.50;99.90;;;;;;5073837;28;20021;-64
2023/12/18 05:03:21;;;;;;;234.63;213.63;;;31.60;99.90;;;;;;5073637;28;20044;-64
2023/12/18 05:05:47;;;;;;;234.07;212.82;;;31.70;99.90;;;;;;5073542;28;20016;-64
2023/12/18 05:08:14;;;;;;;254.77;231.38;;;31.70;99.90;;;;;;5073674;28;20459;-64
2023/12/18 05:10:40;;;;;;;225.88;205.23;;;31.80;99.90;;;;;;5073489;28;20047;-70
2023/12/18 05:13:10;;;;;;;246.13;223.50;;;31.70;99.90;;;;;;5072492;28;20051;-65
2023/12/18 05:15:37;;;;;;;231.93;210.85;;;31.70;99.90;;;;;;5073506;28;20047;-64
2023/12/18 05:18:05;;;;;;;245.65;223.00;;;31.50;99.90;;;;;;5073406;28;20021;-66
2023/12/18 05:20:32;;;;;;;227.18;206.70;;;31.40;99.90;;;;;;5072336;28;20391;-65
2023/12/18 05:22:58;;;;;;;238.50;216.55;;;31.10;99.90;;;;;;5072099;28;20017;-66
2023/12/18 05:25:26;;;;;;;210.75;192.18;;;31.00;99.90;;;;;;5072530;28;20032;-66
2023/12/18 05:27:53;;;;;;;213.18;193.85;;;30.90;99.90;;;;;;5073328;28;21019;-66
2023/12/18 05:30:19;;;;;;;249.07;226.27;;;30.90;99.90;;;;;;5072474;28;20383;-67
2023/12/18 05:32:46;;;;;;;218.93;199.15;;;30.90;99.90;;;;;;5070898;28;20067;-66
2023/12/18 05:35:12;;;;;;;252.57;229.23;;;30.90;99.90;;;;;;5070932;28;20244;-65
2023/12/18 05:37:39;;;;;;;239.38;217.55;;;30.90;99.90;;;;;;5071790;28;20049;-66
2023/12/18 05:40:06;;;;;;;235.15;214.32;;;30.90;99.90;;;;;;5070376;28;20059;-66
2023/12/18 05:42:32;;;;;;;213.25;194.43;;;30.90;99.90;;;;;;5072418;28;20165;-65
2023/12/18 05:44:59;;;;;;;199.02;181.45;;;30.90;99.90;;;;;;5072743;28;20021;-64
2023/12/18 05:47:25;;;;;;;236.30;215.23;;;30.90;99.90;;;;;;5072584;28;20019;-64
2023/12/18 05:49:52;;;;;;;251.57;228.48;;;30.90;99.90;;;;;;5071894;28;20058;-65
2023/12/18 05:52:18;;;;;;;219.35;199.85;;;30.90;99.90;;;;;;5070897;28;20029;-68
2023/12/18 05:54:45;;;;;;;250.27;227.18;;;31.00;99.90;;;;;;5071829;28;20025;-67
2023/12/18 05:57:16;;;;;;;256.67;233.07;;;31.10;99.90;;;;;;5068248;28;20490;-66
2023/12/18 05:59:43;;;;;;;254.02;231.02;;;31.30;99.90;;;;;;5070054;28;20040;-67
2023/12/18 06:02:09;;;;;;;224.50;204.32;;;31.50;99.90;;;;;;5071588;28;20033;-67
2023/12/18 06:04:38;;;;;;;240.35;218.73;;;31.60;99.90;;;;;;5073121;28;20475;-68
2023/12/18 06:07:04;;;;;;;224.98;204.90;;;31.70;99.90;;;;;;5072823;28;20029;-68
2023/12/18 06:09:31;;;;;;;243.43;221.23;;;31.90;99.90;;;;;;5069713;28;20066;-67
2023/12/18 06:11:58;;;;;;;247.23;224.73;;;32.00;99.90;;;;;;5070538;28;20098;-66
2023/12/18 06:14:24;;;;;;;216.90;197.48;;;32.00;99.90;;;;;;5069949;28;20033;-68
2023/12/18 06:16:51;;;;;;;266.15;241.63;;;32.10;99.90;;;;;;5072126;28;20052;-64
2023/12/18 06:19:17;;;;;;;253.18;229.80;;;32.20;99.90;;;;;;5071949;28;20099;-64
2023/12/18 06:21:44;;;;;;;242.15;219.85;;;32.20;99.90;;;;;;5070085;28;20017;-65
2023/12/18 06:24:10;;;;;;;237.52;216.25;;;32.20;99.90;;;;;;5070947;28;20108;-65
2023/12/18 06:26:37;;;;;;;239.10;217.02;;;32.30;99.90;;;;;;5071844;28;20042;-65
2023/12/18 06:29:03;;;;;;;274.80;249.30;;;32.40;99.90;;;;;;5071848;28;20154;-65
2023/12/18 06:31:30;;;;;;;256.58;232.82;;;32.40;99.90;;;;;;5071615;28;20040;-65
2023/12/18 06:33:56;;;;;;;278.48;252.60;;;32.50;99.90;;;;;;5071553;28;20352;-65
2023/12/18 06:36:23;;;;;;;253.35;229.98;;;32.60;99.90;;;;;;5073237;28;20028;-66
2023/12/18 06:38:49;;;;;;;276.77;251.18;;;32.60;99.90;;;;;;5075200;28;20379;-65
2023/12/18 06:41:16;;;;;;;263.45;239.35;;;32.70;99.90;;;;;;5075107;28;20498;-64
2023/12/18 06:43:42;;;;;;;248.07;225.48;;;32.80;99.90;;;;;;5075227;28;20028;-66
2023/12/18 06:46:10;;;;;;;287.65;260.33;;;32.80;99.90;;;;;;5075852;28;20024;-65
2023/12/18 06:48:36;;;;;;;264.23;240.10;;;32.80;99.90;;;;;;5072247;28;20020;-67
2023/12/18 06:51:03;;;;;;;273.15;247.32;;;32.70;99.90;;;;;;5074595;28;20024;-63
2023/12/18 06:53:29;;;;;;;251.57;228.82;;;32.70;99.90;;;;;;5075370;28;20028;-64
2023/12/18 06:55:56;;;;;;;239.82;217.95;;;32.60;99.90;;;;;;5075471;28;20040;-65
2023/12/18 06:58:23;;;;;;;255.23;232.32;;;32.50;99.90;;;;;;5075503;28;20517;-64
2023/12/18 07:00:49;;;;;;;230.73;209.88;;;32.50;99.90;;;;;;5075979;28;20036;-64
2023/12/18 07:03:16;;;;;;;249.18;226.43;;;32.50;99.90;;;;;;5075704;28;20032;-64
2023/12/18 07:05:43;;;;;;;282.98;256.20;;;32.50;99.90;;;;;;5075832;28;20037;-65
2023/12/18 07:08:09;;;;;;;286.02;258.88;;;32.50;99.90;;;;;;5073321;28;20377;-65
2023/12/18 07:10:36;;;;;;;256.42;232.93;;;32.50;99.90;;;;;;5056431;28;20037;-65
2023/12/18 07:13:02;;;;;;;245.25;222.80;;;32.50;99.90;;;;;;5056277;28;20053;-65
2023/12/18 07:15:29;;;;;;;265.80;241.38;;;32.50;99.90;;;;;;5055755;28;20021;-65
2023/12/18 07:17:58;;;;;;;241.57;219.18;;;32.40;99.90;;;;;;5055475;28;20479;-65
2023/12/18 07:20:25;;;;;;;280.17;253.98;;;32.40;99.90;;;;;;5055691;28;20029;-65
2023/12/18 07:22:51;;;;;;;279.55;252.15;;;32.40;99.90;;;;;;5056003;28;20100;-65
2023/12/18 07:25:18;;;;;;;256.83;231.98;;;32.30;99.90;;;;;;5055435;28;20491;-66
2023/12/18 07:27:45;;;;;;;267.52;242.55;;;32.30;99.90;;;;;;5054931;28;20021;-64
2023/12/18 07:30:12;;;;;;;253.50;230.27;;;32.30;99.90;;;;;;5055454;28;20529;-64
2023/12/18 07:32:39;;;;;;;233.80;212.65;;;32.30;99.90;;;;;;5054988;28;20048;-65
2023/12/18 07:35:06;;;;;;;220.00;200.15;;;32.30;99.90;;;;;;5055163;28;20108;-65
2023/12/18 07:37:32;;;;;;;217.77;197.88;;;32.30;99.90;;;;;;5054981;28;20021;-65
2023/12/18 07:40:00;;;;;;;234.13;212.57;;;32.40;99.90;;;;;;5054841;28;20480;-65
2023/12/18 07:42:27;;;;;;;237.13;215.20;;;32.40;99.90;;;;;;5054264;28;20056;-65
2023/12/18 07:44:54;;;;;;;238.63;216.95;;;32.40;99.90;;;;;;5054788;28;20033;-64
2023/12/18 07:47:20;;;;;;;258.80;234.80;;;32.50;99.90;;;;;;5053692;28;20483;-64
2023/12/18 07:49:49;;;;;;;238.43;216.82;;;32.40;99.90;;;;;;5054403;28;20184;-65
2023/12/18 07:52:16;;;;;;;253.93;230.18;;;32.50;99.90;;;;;;5054804;28;20547;-65
2023/12/18 07:54:43;;;;;;;239.73;217.68;;;32.50;99.90;;;;;;5054497;28;20029;-64
2023/12/18 07:57:09;;;;;;;218.95;199.48;;;32.40;99.90;;;;;;5054754;28;20032;-65
2023/12/18 07:59:39;;;;;;;232.23;210.57;;;32.40;99.90;;;;;;5054786;28;20029;-65
2023/12/18 08:02:07;;;;;;;237.25;215.55;;;32.20;99.90;;;;;;5053436;28;20017;-66
2023/12/18 08:04:35;;;;;;;253.52;230.07;;;32.10;99.90;;;;;;5054628;28;20021;-65
2023/12/18 08:07:02;;;;;;;246.00;223.27;;;32.00;99.90;;;;;;5054569;28;20079;-65
2023/12/18 08:09:29;;;;;;;228.30;207.23;;;31.90;99.90;;;;;;5054187;28;20050;-64
2023/12/18 08:11:55;;;;;;;237.38;215.82;;;31.80;99.90;;;;;;5054631;28;20028;-65
2023/12/18 08:14:22;;;;;;;215.40;195.68;;;31.70;99.90;;;;;;5053915;28;20025;-65
2023/12/18 08:16:49;;;;;;;205.93;187.55;;;31.60;99.90;;;;;;5053853;28;20029;-65
2023/12/18 08:19:15;;;;;;;211.02;191.98;;;31.50;99.90;;;;;;5054161;28;20024;-65
2023/12/18 08:21:43;;;;;;;203.18;185.13;;;31.50;99.90;;;;;;5054279;28;20029;-65
2023/12/18 08:24:09;;;;;;;250.20;227.15;;;31.50;99.90;;;;;;5061740;28;20115;-64
2023/12/18 08:26:36;;;;;;;249.88;226.77;;;31.50;99.90;;;;;;5073576;28;20268;-70
2023/12/18 08:29:04;;;;;;;249.02;226.23;;;31.50;99.90;;;;;;5073044;28;20055;-65
2023/12/18 08:31:31;;;;;;;207.43;188.95;;;31.40;99.90;;;;;;5073539;28;20021;-65
2023/12/18 08:33:57;;;;;;;240.43;218.57;;;31.40;99.90;;;;;;5073125;28;20116;-65
2023/12/18 08:36:24;;;;;;;240.80;218.68;;;31.40;99.90;;;;;;5070781;28;20024;-65
2023/12/18 08:38:50;;;;;;;253.50;229.82;;;31.40;99.90;;;;;;5073064;28;20039;-63
2023/12/18 08:41:16;;;;;;;230.23;208.30;;;31.40;99.90;;;;;;5073079;28;20463;-64
2023/12/18 08:43:43;;;;;;;248.90;226.00;;;31.30;99.90;;;;;;5072807;28;20070;-64
2023/12/18 08:46:09;;;;;;;193.00;175.70;;;31.20;99.90;;;;;;5072563;28;20017;-64
2023/12/18 08:48:36;;;;;;;229.23;207.98;;;31.10;99.90;;;;;;5072425;28;20024;-64
2023/12/18 08:51:03;;;;;;;250.77;227.45;;;31.10;99.90;;;;;;5072507;28;20048;-66
2023/12/18 08:53:29;;;;;;;222.32;201.63;;;31.10;99.90;;;;;;5072740;28;20032;-64
2023/12/18 08:55:56;;;;;;;263.05;238.02;;;31.10;99.90;;;;;;5072669;28;20459;-65
2023/12/18 08:58:25;;;;;;;233.75;211.75;;;30.90;99.90;;;;;;5073278;28;20021;-65
2023/12/18 09:00:53;;;;;;;264.75;239.77;;;30.80;99.90;;;;;;5072777;28;20096;-66
2023/12/18 09:03:21;;;;;;;230.93;209.55;;;30.60;99.90;;;;;;5073308;28;20028;-65
2023/12/18 09:05:48;;;;;;;218.68;198.88;;;30.50;99.90;;;;;;5073073;28;20051;-65
2023/12/18 09:08:15;;;;;;;242.68;220.18;;;30.40;99.90;;;;;;5073543;28;20017;-66
2023/12/18 09:10:42;;;;;;;259.77;235.50;;;30.40;99.90;;;;;;5073358;28;20048;-66
2023/12/18 09:13:08;;;;;;;269.55;243.65;;;30.40;99.90;;;;;;5073321;28;20021;-65
2023/12/18 09:15:36;;;;;;;269.80;244.20;;;30.30;99.90;;;;;;5074242;28;20031;-64
2023/12/18 09:18:02;;;;;;;273.95;247.95;;;30.30;99.90;;;;;;5073820;28;20502;-63
2023/12/18 09:20:29;;;;;;;268.05;242.45;;;30.20;99.90;;;;;;5074028;28;20074;-65
2023/12/18 09:22:55;;;;;;;279.65;252.63;;;30.20;99.90;;;;;;5073969;28;20021;-65
2023/12/18 09:25:22;;;;;;;286.48;258.80;;;30.10;99.90;;;;;;5073082;28;20047;-66
2023/12/18 09:27:48;;;;;;;253.07;229.63;;;30.00;99.90;;;;;;5073805;28;20020;-72
2023/12/18 09:30:15;;;;;;;245.05;222.20;;;30.00;99.90;;;;;;5074252;28;20032;-69
2023/12/18 09:32:41;;;;;;;252.15;228.57;;;30.00;99.90;;;;;;5074073;28;20391;-69
2023/12/18 09:35:08;;;;;;;223.88;203.35;;;30.00;99.90;;;;;;5074306;28;20024;-66
2023/12/18 09:37:35;;;;;;;244.55;222.15;;;29.90;99.90;;;;;;5073631;28;20498;-64
2023/12/18 09:40:01;;;;;;;261.60;237.10;;;29.90;99.90;;;;;;5073434;28;20032;-65
2023/12/18 09:42:28;;;;;;;241.57;219.30;;;29.90;99.90;;;;;;5073535;28;20024;-65
2023/12/18 09:45:00;;;;;;;257.33;233.15;;;29.90;99.90;;;;;;5073679;28;20066;-63
2023/12/18 09:47:26;;;;;;;243.43;220.93;;;29.80;99.90;;;;;;5070728;28;20024;-64
2023/12/18 09:49:54;;;;;;;266.27;240.95;;;29.80;99.90;;;;;;5073399;28;20044;-64
2023/12/18 09:52:23;;;;;;;305.10;274.65;;;29.70;99.90;;;;;;5073447;28;20425;-63
2023/12/18 09:54:51;;;;;;;371.52;333.08;;;29.80;99.90;;;;;;5073390;28;20556;-65
2023/12/18 09:57:19;;;;;;;398.75;356.15;;;29.80;99.90;;;;;;5073109;28;20028;-64
2023/12/18 09:59:46;;;;;;;376.48;334.45;;;29.80;99.90;;;;;;5072865;28;20024;-65
2023/12/18 10:02:13;;;;;;;391.13;347.00;;;29.90;99.90;;;;;;5065244;28;20016;-65
2023/12/18 10:04:41;;;;;;;361.13;323.52;;;29.90;99.90;;;;;;5056040;28;20033;-65
2023/12/18 10:07:08;;;;;;;384.13;343.35;;;30.00;99.90;;;;;;5052955;28;20386;-65
2023/12/18 10:09:36;;;;;;;389.70;350.05;;;30.00;99.90;;;;;;5052858;28;20053;-64
2023/12/18 10:12:03;;;;;;;327.15;294.15;;;30.00;99.90;;;;;;5055772;28;20036;-64
2023/12/18 10:14:29;;;;;;;358.90;305.58;;;30.00;99.90;;;;;;5057900;28;20032;-63
2023/12/18 10:16:56;;;;;;;341.65;306.38;;;30.00;99.90;;;;;;5073012;28;20037;-63
2023/12/18 10:19:24;;;;;;;309.75;279.52;;;30.00;99.90;;;;;;5076653;28;20103;-63
2023/12/18 10:21:50;;;;;;;338.55;304.80;;;30.00;99.90;;;;;;5076625;28;20024;-64
2023/12/18 10:24:18;;;;;;;396.50;355.05;;;30.00;99.90;;;;;;5071571;28;20017;-65
2023/12/18 10:26:48;;;;;;;365.45;327.70;;;29.90;99.90;;;;;;5076768;28;20025;-65
2023/12/18 10:29:15;;;;;;;326.42;294.00;;;29.90;99.90;;;;;;5076945;28;20028;-65
2023/12/18 10:31:42;;;;;;;283.20;256.33;;;30.00;99.90;;;;;;5076354;28;20028;-65
2023/12/18 10:34:09;;;;;;;225.10;204.55;;;30.00;99.90;;;;;;5076601;28;20024;-68
2023/12/18 10:36:40;;;;;;;252.90;229.48;;;29.90;99.90;;;;;;5075744;28;20028;-67
2023/12/18 10:39:12;;;;;;;224.65;203.43;;;29.90;99.90;;;;;;5073238;28;20360;-67
2023/12/18 10:41:43;;;;;;;202.30;184.07;;;29.90;99.90;;;;;;5075995;28;20043;-66
2023/12/18 10:44:12;;;;;;;238.43;215.50;;;29.90;99.90;;;;;;5073408;28;20020;-69
2023/12/18 10:46:39;;;;;;;269.58;241.73;;;29.90;99.90;;;;;;5075693;28;20035;-65
2023/12/18 10:49:07;;;;;;;234.95;211.85;;;29.90;99.90;;;;;;5075291;28;20023;-67
2023/12/18 10:51:36;;;;;;;254.10;227.50;;;29.90;99.90;;;;;;5076004;28;20196;-66
2023/12/18 10:54:02;;;;;;;248.05;223.40;;;29.90;99.90;;;;;;5076488;28;20103;-66
2023/12/18 10:56:31;;;;;;;211.55;191.07;;;29.90;99.90;;;;;;5076351;28;20129;-64
2023/12/18 10:58:59;;;;;;;247.00;222.60;;;29.90;99.90;;;;;;5076221;28;20114;-66
2023/12/18 11:01:27;;;;;;;262.75;236.50;;;29.90;99.90;;;;;;5076359;28;20111;-65
2023/12/18 11:03:55;;;;;;;261.45;234.43;;;29.90;99.90;;;;;;5076126;28;20529;-65
2023/12/18 11:06:21;;;;;;;260.23;232.15;;;29.90;99.90;;;;;;5075942;28;20098;-66
2023/12/18 11:08:49;;;;;;;255.35;229.57;;;29.90;99.90;;;;;;5076181;28;20417;-68
2023/12/18 11:11:18;;;;;;;228.23;206.43;;;29.90;99.90;;;;;;5073278;28;20079;-66
2023/12/18 11:13:56;;;;;;;240.23;217.15;;;29.80;99.90;;;;;;5075897;28;20103;-67
2023/12/18 11:16:31;;;;;;;182.75;165.13;;;29.80;99.90;;;;;;5074480;28;20055;-67
2023/12/18 11:19:09;;;;;;;179.95;163.77;;;29.80;99.90;;;;;;5073708;28;20027;-67
2023/12/18 11:21:35;;;;;;;221.20;200.32;;;29.80;99.90;;;;;;5073129;28;20020;-66
2023/12/18 11:24:03;;;;;;;178.32;162.23;;;29.80;99.90;;;;;;5074095;28;20012;-67
2023/12/18 11:26:30;;;;;;;202.15;183.52;;;29.70;99.90;;;;;;5075630;28;20552;-67
2023/12/18 11:28:58;;;;;;;172.30;156.48;;;29.60;99.90;;;;;;5076210;28;20078;-67
2023/12/18 11:31:25;;;;;;;193.43;176.05;;;29.60;99.90;;;;;;5075067;28;20123;-70
2023/12/18 11:34:11;;;;;;;193.90;176.48;;;29.60;99.90;;;;;;5075512;28;20107;-65
2023/12/18 11:36:39;;;;;;;216.40;196.38;;;29.60;99.90;;;;;;5069836;28;20060;-65
2023/12/18 11:39:07;;;;;;;226.10;205.02;;;29.60;99.90;;;;;;5075167;28;20558;-64
2023/12/18 11:41:45;;;;;;;216.32;196.15;;;29.50;99.90;;;;;;5073705;28;20020;-64
2023/12/18 11:44:12;;;;;;;248.93;224.45;;;29.50;99.90;;;;;;5074024;28;20020;-67
2023/12/18 11:46:39;;;;;;;204.77;185.68;;;29.50;99.90;;;;;;5075292;28;20040;-66
2023/12/18 11:49:07;;;;;;;222.93;202.68;;;29.50;99.90;;;;;;5075073;28;20032;-67
2023/12/18 11:51:35;;;;;;;223.43;202.55;;;29.50;99.90;;;;;;5073306;28;20020;-65
2023/12/18 11:54:02;;;;;;;188.93;171.30;;;29.50;99.90;;;;;;5072809;28;20086;-68
2023/12/18 11:56:38;;;;;;;230.98;209.55;;;29.60;99.90;;;;;;5074934;28;20028;-67
2023/12/18 11:59:06;;;;;;;206.38;186.48;;;29.50;99.90;;;;;;5072557;28;20036;-68
2023/12/18 12:01:33;;;;;;;189.10;171.60;;;29.50;99.90;;;;;;5075664;28;20102;-69
2023/12/18 12:03:59;;;;;;;172.48;157.00;;;29.50;99.90;;;;;;5071907;28;20016;-68
2023/12/18 12:06:27;;;;;;;214.80;194.88;;;29.40;99.90;;;;;;5070810;28;20482;-68
2023/12/18 12:08:53;;;;;;;180.57;163.75;;;29.30;99.90;;;;;;5069315;28;20043;-68